createdAt,value
2023-01-10T00:02:18.483Z,100399.03
2023-01-10T00:04:46.882Z,100391.13
2023-01-10T00:07:15.234Z,100388.13
2023-01-10T00:09:43.576Z,100371.47
2023-01-10T00:12:31.054Z,100374.19
2023-01-10T00:14:59.599Z,100371.75
2023-01-10T00:17:28.259Z,100362.09
2023-01-10T00:19:56.924Z,100358.31
2023-01-10T00:22:27.720Z,100355.69
2023-01-10T00:24:56.132Z,100348.44
2023-01-10T00:27:26.167Z,100339.03
2023-01-10T00:29:54.786Z,100340.81
2023-01-10T00:32:23.845Z,100353.06
2023-01-10T00:34:53.475Z,100352.13
2023-01-10T00:37:22.135Z,100338.91
2023-01-10T00:39:50.730Z,100329.81
2023-01-10T00:42:37.033Z,100330.41
2023-01-10T00:45:09.181Z,100319.81
2023-01-10T00:47:37.751Z,100320.75
2023-01-10T00:50:08.871Z,100327.03
2023-01-10T00:52:37.454Z,100318.16
2023-01-10T00:55:06.812Z,100307.34
2023-01-10T00:57:35.616Z,100297.03
2023-01-10T01:00:10.408Z,100292.44
2023-01-10T01:02:39.484Z,100273.78
2023-01-10T01:05:09.045Z,100254.13
2023-01-10T01:07:37.814Z,100262.06
2023-01-10T01:10:24.289Z,100241.13
2023-01-10T01:12:53.828Z,100243.09
2023-01-10T01:15:23.936Z,100240.59
2023-01-10T01:17:52.577Z,100231.06
2023-01-10T01:20:21.962Z,100217.09
2023-01-10T01:22:50.549Z,100213.94
2023-01-10T01:25:19.086Z,100204.44
2023-01-10T01:27:47.690Z,100201.69
2023-01-10T01:30:16.768Z,100190.03
2023-01-10T01:32:46.700Z,100184.91
2023-01-10T01:35:19.844Z,100180.38
2023-01-10T01:37:48.583Z,100180.28
2023-01-10T01:40:18.746Z,100169.38
2023-01-10T01:42:48.458Z,100166.13
2023-01-10T01:45:36.135Z,100177.56
2023-01-10T01:48:27.323Z,100164.75
2023-01-10T01:51:05.660Z,100153.56
2023-01-10T01:53:40.829Z,100152.06
2023-01-10T01:56:15.431Z,100157.41
2023-01-10T01:58:48.713Z,100160.38
2023-01-10T02:01:18.336Z,100153.66
2023-01-10T02:03:52.969Z,100147.25
2023-01-10T02:06:25.323Z,100142.22
2023-01-10T02:09:03.529Z,100140.50
2023-01-10T02:11:32.278Z,100087.88
2023-01-10T02:14:01.813Z,100112.03
2023-01-10T02:16:30.171Z,100099.75
2023-01-10T02:19:00.759Z,100087.03
2023-01-10T02:21:47.747Z,100080.13
2023-01-10T02:24:51.964Z,100076.59
2023-01-10T02:27:30.034Z,100059.41
2023-01-10T02:30:30.703Z,100048.47
2023-01-10T02:33:09.878Z,100048.06
2023-01-10T02:35:55.276Z,100040.53
2023-01-10T02:38:35.562Z,100034.25
2023-01-10T02:41:11.891Z,100032.78
2023-01-10T02:43:48.606Z,100024.59
2023-01-10T02:46:25.308Z,100028.13
2023-01-10T02:48:56.665Z,100030.47
2023-01-10T02:51:28.095Z,100025.94
2023-01-10T02:54:01.195Z,100019.03
2023-01-10T02:56:57.006Z,100005.63
2023-01-10T02:59:48.941Z,100006.06
2023-01-10T03:02:28.505Z,99977.72
2023-01-10T03:05:09.998Z,99981.50
2023-01-10T03:07:45.597Z,99968.84
2023-01-10T03:10:18.362Z,99955.91
2023-01-10T03:12:53.175Z,99936.94
2023-01-10T03:15:23.774Z,99927.63
2023-01-10T03:17:57.874Z,99920.06
2023-01-10T03:20:31.108Z,99915.47
2023-01-10T03:23:02.924Z,99910.75
2023-01-10T03:25:36.875Z,99902.69
2023-01-10T03:28:10.724Z,99892.19
2023-01-10T03:30:45.090Z,99869.84
2023-01-10T03:33:17.612Z,99856.88
2023-01-10T03:35:59.213Z,99850.16
2023-01-10T03:38:32.922Z,99831.13
2023-01-10T03:41:08.435Z,99826.59
2023-01-10T03:44:02.681Z,99821.56
2023-01-10T03:46:38.815Z,99796.22
2023-01-10T03:49:10.999Z,99786.25
2023-01-10T03:51:42.263Z,99778.38
2023-01-10T03:54:12.817Z,99758.03
2023-01-10T03:56:50.502Z,99754.34
2023-01-10T03:59:20.961Z,99739.34
2023-01-10T04:01:49.895Z,99722.72
2023-01-10T04:04:18.749Z,99712.22
2023-01-10T04:06:48.931Z,99698.28
2023-01-10T04:09:17.623Z,99693.31
2023-01-10T04:11:46.213Z,99680.94
2023-01-10T04:14:14.865Z,99685.34
2023-01-10T04:16:44.715Z,99675.78
2023-01-10T04:19:13.409Z,99668.53
2023-01-10T04:21:42.193Z,99655.34
2023-01-10T04:24:13.924Z,99652.72
2023-01-10T04:26:42.463Z,99643.59
2023-01-10T04:29:11.023Z,99643.25
2023-01-10T04:31:40.397Z,99631.59
2023-01-10T04:34:09.835Z,99614.56
2023-01-10T04:36:38.484Z,99608.59
2023-01-10T04:39:07.227Z,99608.94
2023-01-10T04:41:37.378Z,99591.69
2023-01-10T04:44:06.470Z,99574.88
2023-01-10T04:46:35.412Z,99568.81
2023-01-10T04:49:04.087Z,99547.84
2023-01-10T04:51:33.921Z,99538.78
2023-01-10T04:54:02.514Z,99533.75
2023-01-10T04:56:31.038Z,99519.22
2023-01-10T04:59:01.139Z,99517.31
2023-01-10T05:01:29.898Z,99505.28
2023-01-10T05:03:58.557Z,99492.19
2023-01-10T05:06:28.407Z,99494.44
2023-01-10T05:08:58.049Z,99468.91
2023-01-10T05:11:26.913Z,99466.28
2023-01-10T05:13:55.976Z,99451.16
2023-01-10T05:16:26.629Z,99452.44
2023-01-10T05:18:55.854Z,99438.94
2023-01-10T05:21:24.850Z,99429.50
2023-01-10T05:23:53.425Z,99420.91
2023-01-10T05:26:24.577Z,99415.88
2023-01-10T05:28:53.321Z,99413.47
2023-01-10T05:31:22.110Z,99407.25
2023-01-10T05:33:53.453Z,99386.84
2023-01-10T05:36:22.425Z,99388.25
2023-01-10T05:38:50.955Z,99366.28
2023-01-10T05:41:19.624Z,99348.22
2023-01-10T05:43:48.314Z,99355.72
2023-01-10T05:46:17.979Z,99353.91
2023-01-10T05:48:46.990Z,99349.97
2023-01-10T05:51:17.048Z,99335.88
2023-01-10T05:53:45.950Z,99318.19
2023-01-10T05:56:14.634Z,99314.34
2023-01-10T05:58:44.337Z,99302.75
2023-01-10T06:01:15.800Z,99300.13
2023-01-10T06:04:03.406Z,99298.19
2023-01-10T06:06:34.775Z,99302.94
2023-01-10T06:09:03.492Z,99295.31
2023-01-10T06:11:32.215Z,99278.75
2023-01-10T06:14:00.826Z,99274.63
2023-01-10T06:16:29.604Z,99267.81
2023-01-10T06:18:58.285Z,99254.28
2023-01-10T06:21:26.933Z,99243.53
2023-01-10T06:23:56.924Z,99243.81
2023-01-10T06:26:25.461Z,99233.31
2023-01-10T06:28:53.886Z,99240.75
2023-01-10T06:31:22.846Z,99217.31
2023-01-10T06:33:52.483Z,99221.06
2023-01-10T06:36:21.961Z,99212.56
2023-01-10T06:38:50.560Z,99218.66
2023-01-10T06:41:20.702Z,99209.78
2023-01-10T06:43:51.511Z,99203.41
2023-01-10T06:46:21.307Z,99203.50
2023-01-10T06:48:51.394Z,99187.78
2023-01-10T06:51:20.467Z,99185.44
2023-01-10T06:53:49.358Z,99191.06
2023-01-10T06:56:19.904Z,99181.09
2023-01-10T06:58:50.910Z,99187.22
2023-01-10T07:01:22.316Z,99176.31
2023-01-10T07:03:51.156Z,99155.97
2023-01-10T07:06:19.695Z,99154.72
2023-01-10T07:08:48.918Z,99155.59
2023-01-10T07:11:18.151Z,99164.41
2023-01-10T07:13:48.418Z,99160.91
2023-01-10T07:16:18.525Z,99145.78
2023-01-10T07:18:47.350Z,99147.97
2023-01-10T07:21:18.316Z,99165.53
2023-01-10T07:23:48.970Z,99153.22
2023-01-10T07:26:19.448Z,99140.72
2023-01-10T07:28:51.799Z,99107.94
2023-01-10T07:31:23.427Z,99141.44
2023-01-10T07:33:53.821Z,99117.22
2023-01-10T07:36:23.780Z,99113.69
2023-01-10T07:38:59.624Z,99121.81
2023-01-10T07:44:38.167Z,99097.16
2023-01-10T07:57:03.970Z,99086.16
2023-01-10T08:13:57.042Z,99065.59
2023-01-10T08:16:26.885Z,99039.84
2023-01-10T10:23:05.670Z,98981.03
2023-01-10T10:25:57.540Z,98968.94
2023-01-10T10:29:07.604Z,98959.84
2023-01-10T10:31:55.307Z,98954.84
2023-01-10T10:34:33.367Z,98975.53
2023-01-10T10:37:06.852Z,98965.59
2023-01-10T10:39:43.341Z,98932.66
2023-01-10T10:42:16.781Z,98941.59
2023-01-10T10:44:53.593Z,98946.72
2023-01-10T10:47:25.950Z,98918.78
2023-01-10T10:50:10.308Z,98944.03
2023-01-10T10:52:39.358Z,98932.59
2023-01-10T10:55:16.862Z,98898.31
2023-01-10T10:57:59.804Z,98905.44
2023-01-10T11:00:43.555Z,98882.81
2023-01-10T11:03:27.845Z,98894.84
2023-01-10T11:05:59.041Z,98901.28
2023-01-10T11:08:39.193Z,98895.34
2023-01-10T11:11:43.280Z,98877.31
2023-01-10T11:14:13.878Z,98885.00
2023-01-10T11:16:48.918Z,98874.75
2023-01-10T11:19:30.631Z,98862.53
2023-01-10T11:22:29.412Z,98851.22
2023-01-10T11:25:01.993Z,98847.25
2023-01-10T11:27:45.315Z,98839.31
2023-01-10T11:30:42.017Z,98851.22
2023-01-10T11:33:24.600Z,98838.63
2023-01-10T11:36:06.270Z,98826.50
2023-01-10T11:39:00.341Z,98830.94
2023-01-10T11:41:53.530Z,98787.25
2023-01-10T11:44:34.836Z,98824.50
2023-01-10T11:47:15.117Z,98801.78
2023-01-10T11:49:53.238Z,98782.78
2023-01-10T11:52:31.670Z,98798.31
2023-01-10T11:55:09.584Z,98784.97
2023-01-10T11:57:39.594Z,98773.47
2023-01-10T12:00:12.836Z,98765.69
2023-01-10T12:02:52.785Z,98749.25
2023-01-10T12:05:39.274Z,98751.06
2023-01-10T12:08:27.698Z,98726.41
2023-01-10T12:11:05.735Z,98711.63
2023-01-10T12:13:50.193Z,98714.66
2023-01-10T12:16:29.966Z,98703.66
2023-01-10T12:19:20.160Z,98693.72
2023-01-10T12:21:50.635Z,98692.53
2023-01-10T12:24:27.218Z,98680.94
2023-01-10T12:27:01.696Z,98661.38
2023-01-10T12:29:34.908Z,98662.00
2023-01-10T12:32:09.797Z,98676.75
2023-01-10T12:34:50.923Z,98667.03
2023-01-10T12:37:25.397Z,98640.38
2023-01-10T12:40:01.205Z,98626.31
2023-01-10T12:43:11.827Z,98623.81
2023-01-10T12:45:47.825Z,98593.28
2023-01-10T12:48:30.030Z,98630.22
2023-01-10T12:51:25.206Z,98582.53
2023-01-10T12:54:08.389Z,98549.50
2023-01-10T12:56:37.468Z,98562.41
2023-01-10T12:59:14.944Z,98557.09
2023-01-10T13:02:02.495Z,98546.03
2023-01-10T13:05:06.239Z,98535.69
2023-01-10T13:07:55.172Z,98532.69
2023-01-10T13:10:53.714Z,98547.31
2023-01-10T13:14:08.721Z,98531.47
2023-01-10T13:16:51.470Z,98554.91
2023-01-10T13:19:30.989Z,98497.78
2023-01-10T13:22:25.222Z,98503.84
2023-01-10T13:25:07.525Z,98496.94
2023-01-10T13:28:19.995Z,98477.09
2023-01-10T13:31:12.041Z,98490.06
2023-01-10T13:33:52.673Z,98510.22
2023-01-10T13:36:59.604Z,98477.31
2023-01-10T13:39:46.828Z,98496.34
2023-01-10T13:42:49.707Z,98462.13
2023-01-10T13:45:46.098Z,98477.59
2023-01-10T13:48:42.849Z,98461.59
2023-01-10T13:51:38.649Z,98444.25
2023-01-10T13:54:32.740Z,98456.22
2023-01-10T13:57:52.243Z,98448.84
2023-01-10T14:01:10.144Z,98460.53
2023-01-10T14:04:01.364Z,98454.78
2023-01-10T14:06:45.647Z,98419.94
2023-01-10T14:10:03.081Z,98427.66
2023-01-10T14:12:40.035Z,98404.97
2023-01-10T14:15:30.435Z,98405.19
2023-01-10T14:18:04.388Z,98392.84
2023-01-10T14:20:37.069Z,98395.66
2023-01-10T14:23:22.316Z,98374.78
2023-01-10T14:25:59.563Z,98351.13
2023-01-10T14:29:13.191Z,98370.75
2023-01-10T14:32:09.491Z,98371.19
2023-01-10T14:34:49.964Z,98323.66
2023-01-10T14:38:03.059Z,98370.13
2023-01-10T14:43:12.283Z,98354.78
2023-01-10T14:45:56.955Z,98349.09
2023-01-10T14:48:37.878Z,98336.28
2023-01-10T14:51:32.342Z,98320.78
2023-01-10T14:54:22.186Z,98341.91
2023-01-10T14:57:04.363Z,98371.06
2023-01-10T14:59:40.347Z,98335.47
2023-01-10T15:02:24.697Z,98351.38
2023-01-10T15:05:04.803Z,98316.13
2023-01-10T15:07:46.607Z,98350.13
2023-01-10T15:10:56.546Z,98335.16
2023-01-10T15:14:19.519Z,98354.00
2023-01-10T15:16:54.940Z,98353.56
2023-01-10T15:19:27.323Z,98371.47
2023-01-10T15:22:13.544Z,98386.31
2023-01-10T15:25:00.899Z,98408.06
2023-01-10T15:27:48.142Z,98441.19
2023-01-10T15:31:12.944Z,98463.09
2023-01-10T15:45:30.827Z,98617.56
2023-01-10T15:52:10.542Z,98662.94
2023-01-10T15:54:53.838Z,98702.59
2023-01-10T15:57:35.365Z,98768.78
2023-01-10T16:00:07.135Z,98712.59
2023-01-10T16:02:50.179Z,98743.50
2023-01-10T16:05:31.092Z,98751.25
2023-01-10T16:08:08.139Z,98782.75
2023-01-10T16:10:41.784Z,98792.78
2023-01-10T16:13:29.073Z,98757.16
2023-01-10T16:16:10.917Z,98772.09
2023-01-10T16:18:47.773Z,98771.19
2023-01-10T16:21:17.676Z,98782.84
2023-01-10T16:23:47.516Z,98770.84
2023-01-10T16:26:30.537Z,98788.44
2023-01-10T16:29:00.908Z,98747.59
2023-01-10T16:31:32.142Z,98757.59
2023-01-10T16:34:15.994Z,98767.31
2023-01-10T16:36:47.682Z,98773.22
2023-01-10T16:39:26.368Z,98778.81
2023-01-10T16:42:13.263Z,98783.94
2023-01-10T16:44:49.266Z,98778.81
2023-01-10T16:47:21.057Z,98777.31
2023-01-10T16:49:51.757Z,98806.81
2023-01-10T16:52:20.451Z,98767.31
2023-01-10T16:54:48.993Z,98820.78
2023-01-10T16:57:23.839Z,98820.94
2023-01-10T16:59:56.682Z,98850.84
2023-01-10T17:02:25.731Z,98846.72
2023-01-10T17:04:54.598Z,98832.88
2023-01-10T17:07:23.638Z,98845.84
2023-01-10T17:09:53.041Z,98849.06
2023-01-10T17:12:25.073Z,98902.66
2023-01-10T17:14:57.130Z,98843.19
2023-01-10T17:17:27.414Z,98850.16
2023-01-10T17:19:57.587Z,98872.88
2023-01-10T17:22:27.152Z,98881.88
2023-01-10T17:24:57.897Z,98899.88
2023-01-10T17:27:26.554Z,98920.34
2023-01-10T17:29:57.591Z,98915.94
2023-01-10T17:32:26.648Z,98924.09
2023-01-10T17:34:55.386Z,98961.22
2023-01-10T17:37:24.048Z,98934.38
2023-01-10T17:39:52.736Z,98950.31
2023-01-10T17:42:22.879Z,98963.59
2023-01-10T17:44:51.756Z,98961.94
2023-01-10T17:47:22.914Z,98982.44
2023-01-10T17:49:51.730Z,98989.09
2023-01-10T17:52:20.601Z,98989.09
2023-01-10T17:54:49.102Z,99005.72
2023-01-10T17:57:17.777Z,99028.28
2023-01-10T17:59:47.111Z,98990.75
2023-01-10T18:18:07.342Z,99019.31
2023-01-10T18:20:36.863Z,99030.25
2023-01-10T18:32:06.745Z,99067.47
2023-01-10T18:34:39.672Z,99090.47
2023-01-10T18:37:31.260Z,99080.78
2023-01-10T18:40:00.090Z,99084.66
2023-01-10T18:42:28.592Z,99097.66
2023-01-10T18:44:56.962Z,99097.94
2023-01-10T18:47:25.524Z,99115.50
2023-01-10T18:49:55.547Z,99119.94
2023-01-10T18:52:25.583Z,99138.47
2023-01-10T18:54:54.449Z,99138.59
2023-01-10T18:57:24.662Z,99161.28
2023-01-10T18:59:53.181Z,99159.63
2023-01-10T19:02:21.862Z,99150.91
2023-01-10T19:04:51.929Z,99161.28
2023-01-10T19:07:21.745Z,99171.09
2023-01-10T19:09:50.294Z,99171.41
2023-01-10T19:12:18.977Z,99178.47
2023-01-10T19:14:47.577Z,99163.78
2023-01-10T19:17:15.963Z,99179.16
2023-01-10T19:19:44.691Z,99169.34
2023-01-10T19:22:13.157Z,99174.72
2023-01-10T19:24:43.671Z,99181.78
2023-01-10T19:27:12.904Z,99203.47
2023-01-10T19:29:46.517Z,99190.34
2023-01-10T19:32:15.149Z,99189.50
2023-01-10T19:34:46.300Z,99253.97
2023-01-10T19:37:15.192Z,99216.91
2023-01-10T19:39:45.088Z,99209.84
2023-01-10T19:42:13.696Z,99236.88
2023-01-10T19:44:43.890Z,99232.44
2023-01-10T19:47:12.832Z,99262.03
2023-01-10T19:49:41.306Z,99250.00
2023-01-10T19:52:12.024Z,99250.84
2023-01-10T19:54:40.837Z,99250.84
2023-01-10T19:57:10.898Z,99263.25
2023-01-10T19:59:41.985Z,99275.59
2023-01-10T20:02:14.984Z,99276.00
2023-01-10T20:04:43.324Z,99315.41
2023-01-10T20:07:11.872Z,99290.22
2023-01-10T20:09:41.693Z,99310.72
2023-01-10T20:12:12.723Z,99312.91
2023-01-10T20:14:41.535Z,99328.22
2023-01-10T20:17:10.153Z,99341.88
2023-01-10T20:19:38.775Z,99353.50
2023-01-10T20:22:07.796Z,99359.03
2023-01-10T20:24:36.721Z,99369.34
2023-01-10T20:27:12.140Z,99382.88
2023-01-10T20:29:45.858Z,99387.69
2023-01-10T20:32:15.756Z,99402.16
2023-01-10T20:34:45.856Z,99403.38
2023-01-10T20:37:14.570Z,99406.38
2023-01-10T20:39:43.510Z,99425.97
2023-01-10T20:42:12.383Z,99435.22
2023-01-10T20:44:42.495Z,99441.81
2023-01-10T20:47:12.187Z,99445.50
2023-01-10T20:49:40.776Z,99446.56
2023-01-10T20:52:10.319Z,99446.00
2023-01-10T20:54:39.317Z,99455.19
2023-01-10T20:57:08.045Z,99452.84
2023-01-10T20:59:36.581Z,99453.91
2023-01-10T21:02:06.752Z,99451.41
2023-01-10T21:04:35.451Z,99452.63
2023-01-10T21:07:06.504Z,99458.00
2023-01-10T21:09:35.168Z,99458.69
2023-01-10T21:12:21.517Z,99467.06
2023-01-10T21:14:59.138Z,99457.91
2023-01-10T21:17:29.054Z,99452.91
2023-01-10T21:19:58.034Z,99458.16
2023-01-10T21:22:28.380Z,99473.91
2023-01-10T21:24:56.844Z,99473.06
2023-01-10T21:27:30.589Z,99478.19
2023-01-10T21:30:01.398Z,99475.78
2023-01-10T21:32:33.099Z,99480.22
2023-01-10T21:35:01.623Z,99480.00
2023-01-10T21:37:30.260Z,99479.16
2023-01-10T21:39:59.950Z,99486.44
2023-01-10T21:42:44.970Z,99487.50
2023-01-10T21:45:14.605Z,99490.25
2023-01-10T21:47:44.823Z,99492.75
2023-01-10T21:50:15.122Z,99494.06
2023-01-10T21:52:44.561Z,99490.25
2023-01-10T21:55:16.921Z,99491.47
2023-01-10T21:57:45.507Z,99499.81
2023-01-10T22:00:14.941Z,99506.81
2023-01-10T22:02:45.057Z,99507.69
2023-01-10T22:05:13.730Z,99514.69
2023-01-10T22:07:43.109Z,99505.75
2023-01-10T22:10:12.906Z,99518.03
2023-01-10T22:12:41.516Z,99519.22
2023-01-10T22:15:11.799Z,99513.53
2023-01-10T22:17:40.692Z,99511.72
2023-01-10T22:20:12.274Z,99507.66
2023-01-10T22:22:40.914Z,99520.91
2023-01-10T22:25:10.491Z,99518.50
2023-01-10T22:27:39.091Z,99513.16
2023-01-10T22:30:09.432Z,99506.00
2023-01-10T22:32:38.338Z,99524.50
2023-01-10T22:35:07.298Z,99523.97
2023-01-10T22:37:37.697Z,99517.34
2023-01-10T22:40:07.576Z,99523.63
2023-01-10T22:42:36.142Z,99521.03
2023-01-10T22:45:04.841Z,99534.13
2023-01-10T22:47:34.165Z,99516.81
2023-01-10T22:50:02.799Z,99516.13
2023-01-10T22:52:31.402Z,99540.56
2023-01-10T22:55:01.611Z,99524.69
2023-01-10T22:57:32.963Z,99527.81
2023-01-10T23:00:01.907Z,99535.69
2023-01-10T23:02:30.610Z,99522.94
2023-01-10T23:04:59.311Z,99534.00
2023-01-10T23:07:27.983Z,99525.69
2023-01-10T23:09:56.405Z,99540.59
2023-01-10T23:12:26.210Z,99529.59
2023-01-10T23:14:54.674Z,99527.47
2023-01-10T23:17:23.792Z,99528.03
2023-01-10T23:19:52.170Z,99541.75
2023-01-10T23:22:20.604Z,99539.97
2023-01-10T23:24:49.203Z,99528.06
2023-01-10T23:27:17.910Z,99546.63
2023-01-10T23:29:48.182Z,99537.56
2023-01-10T23:32:17.137Z,99535.31
2023-01-10T23:34:46.229Z,99547.81
2023-01-10T23:37:14.741Z,99560.91
2023-01-10T23:39:43.382Z,99547.09
2023-01-10T23:42:11.921Z,99544.59
2023-01-10T23:44:40.559Z,99556.75
2023-01-10T23:47:10.577Z,99575.09
2023-01-10T23:49:39.354Z,99560.34
2023-01-10T23:52:08.396Z,99570.69
2023-01-10T23:54:37.022Z,99563.53
2023-01-10T23:57:05.903Z,99566.50
2023-01-10T23:59:34.209Z,99564.72
